createdAt,value
2019-03-19T00:01:36.108Z,7.60
2019-03-19T00:05:41.789Z,7.50
2019-03-19T00:09:47.449Z,7.50
2019-03-19T00:13:53.130Z,7.60
2019-03-19T00:17:58.839Z,7.80
2019-03-19T00:22:04.599Z,7.90
2019-03-19T00:26:10.309Z,7.90
2019-03-19T00:30:17.896Z,7.80
2019-03-19T00:34:24.551Z,7.60
2019-03-19T00:38:30.307Z,7.60
2019-03-19T00:42:37.059Z,7.60
2019-03-19T00:46:43.844Z,7.70
2019-03-19T00:50:49.530Z,7.80
2019-03-19T00:54:55.203Z,8.00
2019-03-19T00:59:00.889Z,7.90
2019-03-19T01:03:06.644Z,7.80
2019-03-19T01:07:12.332Z,7.70
2019-03-19T01:11:18.151Z,7.50
2019-03-19T01:15:23.834Z,7.70
2019-03-19T01:19:29.524Z,8.00
2019-03-19T01:23:35.204Z,7.80
2019-03-19T01:27:40.948Z,7.40
2019-03-19T01:31:46.639Z,7.50
2019-03-19T01:35:52.357Z,7.70
2019-03-19T01:40:01.338Z,7.90
2019-03-19T01:44:08.033Z,8.00
2019-03-19T01:48:13.700Z,7.90
2019-03-19T01:52:19.443Z,7.90
2019-03-19T01:56:25.124Z,7.90
2019-03-19T02:00:30.885Z,7.70
2019-03-19T02:04:37.528Z,7.60
2019-03-19T02:08:43.190Z,7.70
2019-03-19T02:12:48.866Z,7.80
2019-03-19T02:16:54.548Z,7.70
2019-03-19T02:21:00.288Z,7.80
2019-03-19T02:25:10.401Z,7.80
2019-03-19T02:29:16.089Z,7.80
2019-03-19T02:33:21.769Z,7.80
2019-03-19T02:37:27.663Z,7.90
2019-03-19T02:41:33.460Z,8.20
2019-03-19T02:45:39.111Z,8.20
2019-03-19T02:49:44.787Z,8.20
2019-03-19T02:53:50.522Z,8.20
2019-03-19T02:57:57.185Z,8.00
2019-03-19T03:02:02.897Z,7.90
2019-03-19T03:06:08.569Z,8.20
2019-03-19T03:10:15.080Z,8.10
2019-03-19T03:14:20.767Z,8.10
2019-03-19T03:18:26.449Z,8.20
2019-03-19T03:22:33.196Z,8.20
2019-03-19T03:26:47.415Z,8.50
2019-03-19T03:30:46.298Z,8.50
2019-03-19T03:34:52.077Z,8.50
2019-03-19T03:38:57.723Z,8.30
2019-03-19T03:43:03.482Z,8.10
2019-03-19T03:47:09.178Z,8.00
2019-03-19T03:51:14.858Z,8.00
2019-03-19T03:55:21.268Z,8.10
2019-03-19T03:59:26.946Z,8.20
2019-03-19T04:03:32.711Z,8.40
2019-03-19T04:07:38.403Z,8.70
2019-03-19T04:11:44.079Z,8.80
2019-03-19T04:15:49.764Z,8.50
2019-03-19T04:19:55.449Z,8.30
2019-03-19T04:24:01.359Z,8.40
2019-03-19T04:28:07.072Z,8.60
2019-03-19T04:32:12.747Z,8.70
2019-03-19T04:36:18.474Z,8.70
2019-03-19T04:40:24.188Z,8.70
2019-03-19T04:44:29.845Z,8.80
2019-03-19T04:48:35.539Z,8.90
2019-03-19T04:52:41.223Z,8.80
2019-03-19T04:56:46.905Z,8.80
2019-03-19T05:00:52.571Z,8.50
2019-03-19T05:04:58.370Z,8.40
2019-03-19T05:09:05.629Z,8.30
2019-03-19T05:13:11.321Z,8.40
2019-03-19T05:17:17.008Z,8.60
2019-03-19T05:21:22.713Z,8.80
2019-03-19T05:25:28.386Z,8.80
2019-03-19T05:29:35.700Z,8.70
2019-03-19T05:33:41.409Z,8.60
2019-03-19T05:37:47.161Z,8.90
2019-03-19T05:41:52.820Z,8.90
2019-03-19T05:45:58.497Z,8.70
2019-03-19T05:50:05.603Z,8.30
2019-03-19T05:54:14.610Z,8.10
2019-03-19T05:58:18.869Z,8.30
2019-03-19T06:02:24.543Z,8.40
2019-03-19T06:06:30.227Z,8.40
2019-03-19T06:10:35.910Z,8.60
2019-03-19T06:14:41.599Z,8.70
2019-03-19T06:18:47.275Z,8.50
2019-03-19T06:22:52.955Z,8.60
2019-03-19T06:26:58.655Z,8.80
2019-03-19T06:31:04.472Z,8.90
2019-03-19T06:35:12.102Z,9.20
2019-03-19T06:39:17.778Z,9.20
2019-03-19T06:43:23.470Z,9.10
2019-03-19T06:47:29.173Z,9.00
2019-03-19T06:51:34.849Z,8.90
2019-03-19T06:55:40.540Z,8.80
2019-03-19T06:59:46.208Z,8.70
2019-03-19T07:03:51.962Z,8.70
2019-03-19T07:07:57.644Z,8.70
2019-03-19T07:12:03.465Z,8.80
2019-03-19T07:16:09.169Z,9.10
2019-03-19T07:20:25.772Z,9.30
2019-03-19T07:24:31.428Z,9.70
2019-03-19T07:28:37.116Z,9.90
2019-03-19T07:32:42.816Z,10.00
2019-03-19T07:36:48.492Z,10.00
2019-03-19T07:40:54.160Z,9.80
2019-03-19T07:44:59.846Z,11.10
2019-03-19T07:49:05.610Z,12.30
2019-03-19T07:53:11.345Z,12.90
2019-03-19T07:57:17.035Z,13.40
2019-03-19T08:01:24.603Z,13.80
2019-03-19T08:05:33.249Z,14.20
2019-03-19T08:09:37.639Z,14.50
2019-03-19T08:13:43.356Z,14.40
2019-03-19T08:17:49.102Z,14.50
2019-03-19T08:21:54.734Z,14.90
2019-03-19T08:26:00.450Z,15.60
2019-03-19T08:30:19.900Z,16.20
2019-03-19T08:34:25.579Z,16.80
2019-03-19T08:38:31.280Z,17.40
2019-03-19T08:42:36.960Z,17.20
2019-03-19T08:46:42.645Z,16.20
2019-03-19T08:50:49.419Z,15.20
2019-03-19T08:54:55.100Z,14.40
2019-03-19T08:59:05.746Z,16.30
2019-03-19T09:03:08.170Z,18.30
2019-03-19T09:07:13.866Z,16.80
2019-03-19T09:11:19.566Z,17.00
2019-03-19T09:15:28.078Z,19.90
2019-03-19T09:19:34.133Z,20.90
2019-03-19T09:23:39.827Z,18.60
2019-03-19T09:27:45.597Z,16.10
2019-03-19T09:31:51.315Z,14.80
2019-03-19T09:35:57.105Z,14.10
2019-03-19T09:40:02.809Z,13.70
2019-03-19T09:44:08.460Z,13.50
2019-03-19T09:48:14.149Z,13.40
2019-03-19T09:52:19.852Z,13.90
2019-03-19T09:56:25.548Z,15.40
2019-03-19T10:00:31.244Z,15.30
2019-03-19T10:04:38.749Z,15.70
2019-03-19T10:08:44.510Z,16.00
2019-03-19T10:12:50.349Z,18.00
2019-03-19T10:16:56.054Z,17.50
2019-03-19T10:21:01.731Z,18.30
2019-03-19T10:25:12.329Z,21.20
2019-03-19T10:29:18.025Z,21.00
2019-03-19T10:33:23.723Z,21.10
2019-03-19T10:37:29.479Z,19.30
2019-03-19T10:41:35.158Z,17.40
2019-03-19T10:45:40.855Z,17.00
2019-03-19T10:49:46.551Z,16.20
2019-03-19T10:53:52.257Z,15.40
2019-03-19T10:57:57.996Z,15.30
2019-03-19T11:06:54.699Z,14.70
2019-03-19T11:11:00.386Z,17.30
2019-03-19T11:15:13.229Z,24.90
2019-03-19T11:19:18.934Z,26.10
2019-03-19T11:23:24.637Z,29.00
2019-03-19T11:27:30.662Z,28.50
2019-03-19T11:31:36.360Z,31.00
2019-03-19T11:35:42.059Z,32.10
2019-03-19T11:39:47.727Z,32.60
2019-03-19T11:47:43.523Z,27.00
2019-03-19T11:51:47.754Z,20.00
2019-03-19T11:55:53.445Z,18.30
2019-03-19T11:59:59.114Z,17.30
2019-03-19T12:04:04.951Z,16.60
2019-03-19T12:08:10.706Z,16.20
2019-03-19T12:12:16.406Z,16.00
2019-03-19T12:16:22.097Z,19.40
2019-03-19T12:20:27.782Z,23.80
2019-03-19T12:24:33.501Z,23.70
2019-03-19T12:28:40.038Z,20.20
2019-03-19T12:32:47.571Z,20.50
2019-03-19T12:36:53.287Z,21.10
2019-03-19T12:40:58.971Z,22.40
2019-03-19T12:45:08.075Z,23.70
2019-03-19T12:49:13.754Z,24.40
2019-03-19T12:53:19.448Z,24.80
2019-03-19T12:57:26.663Z,27.10
2019-03-19T13:01:32.385Z,29.20
2019-03-19T13:05:38.126Z,26.10
2019-03-19T13:09:43.822Z,24.00
2019-03-19T13:13:49.585Z,24.50
2019-03-19T13:17:55.386Z,25.40
2019-03-19T13:22:01.083Z,23.60
2019-03-19T13:26:06.902Z,20.60
2019-03-19T13:30:16.099Z,18.90
2019-03-19T13:34:21.799Z,19.90
2019-03-19T13:38:27.457Z,24.80
2019-03-19T13:42:33.191Z,26.10
2019-03-19T13:46:38.848Z,25.30
2019-03-19T13:50:44.532Z,22.50
2019-03-19T13:54:50.223Z,22.20
2019-03-19T13:58:55.925Z,24.90
2019-03-19T14:03:01.595Z,27.90
2019-03-19T14:07:07.305Z,29.00
2019-03-19T14:11:13.022Z,28.10
2019-03-19T14:15:24.286Z,27.50
2019-03-19T14:19:29.958Z,29.10
2019-03-19T14:23:35.650Z,28.90
2019-03-19T14:27:41.349Z,26.40
2019-03-19T14:31:47.040Z,23.90
2019-03-19T14:35:52.746Z,26.00
2019-03-19T14:39:58.409Z,27.80
2019-03-19T14:44:04.209Z,25.00
2019-03-19T14:48:10.012Z,22.30
2019-03-19T14:52:15.729Z,20.00
2019-03-19T14:56:21.389Z,18.70
2019-03-19T15:00:27.121Z,17.80
2019-03-19T15:04:32.806Z,17.20
2019-03-19T15:08:38.507Z,16.80
2019-03-19T15:12:44.274Z,16.50
2019-03-19T15:16:49.947Z,16.30
2019-03-19T15:20:55.640Z,16.20
2019-03-19T15:25:01.354Z,16.10
2019-03-19T15:29:07.022Z,16.00
2019-03-19T15:33:12.714Z,16.20
2019-03-19T15:37:18.494Z,17.10
2019-03-19T15:41:24.292Z,17.40
2019-03-19T15:45:31.791Z,17.50
2019-03-19T15:49:38.542Z,17.40
2019-03-19T15:53:45.316Z,16.70
2019-03-19T15:57:51.018Z,16.30
2019-03-19T16:01:56.811Z,15.80
2019-03-19T16:06:02.555Z,15.40
2019-03-19T16:10:14.016Z,15.10
2019-03-19T16:14:19.710Z,15.00
2019-03-19T16:18:25.419Z,14.90
2019-03-19T16:22:31.130Z,14.80
2019-03-19T16:26:36.837Z,14.70
2019-03-19T16:30:42.533Z,14.50
2019-03-19T16:34:48.205Z,14.40
2019-03-19T16:38:53.973Z,14.40
2019-03-19T16:42:59.672Z,14.30
2019-03-19T16:47:05.584Z,14.20
2019-03-19T16:51:15.529Z,14.20
2019-03-19T16:55:22.525Z,14.10
2019-03-19T16:59:28.230Z,14.00
2019-03-19T17:03:33.930Z,14.00
2019-03-19T17:07:39.625Z,14.00
2019-03-19T17:11:45.384Z,13.90
2019-03-19T17:15:52.178Z,13.80
2019-03-19T17:19:57.873Z,13.80
2019-03-19T17:24:03.571Z,13.80
2019-03-19T17:28:09.340Z,13.70
2019-03-19T17:32:15.121Z,13.60
2019-03-19T17:36:20.799Z,13.50
2019-03-19T17:40:26.510Z,13.40
2019-03-19T17:44:32.198Z,13.20
2019-03-19T17:48:37.911Z,13.20
2019-03-19T17:52:43.683Z,13.20
2019-03-19T17:56:49.369Z,13.10
2019-03-19T18:00:55.853Z,12.90
2019-03-19T18:05:01.535Z,13.00
2019-03-19T18:09:08.484Z,12.90
2019-03-19T18:13:19.905Z,12.80
2019-03-19T18:17:25.621Z,12.80
2019-03-19T18:21:31.318Z,12.70
2019-03-19T18:25:37.371Z,12.60
2019-03-19T18:29:43.056Z,12.60
2019-03-19T18:33:49.276Z,12.60
2019-03-19T18:37:55.056Z,12.50
2019-03-19T18:42:00.840Z,12.40
2019-03-19T18:46:06.670Z,12.30
2019-03-19T18:50:19.686Z,12.30
2019-03-19T18:54:25.354Z,12.20
2019-03-19T18:58:31.073Z,12.00
2019-03-19T19:02:36.824Z,11.80
2019-03-19T19:06:42.507Z,11.60
2019-03-19T19:10:48.232Z,11.30
2019-03-19T19:14:53.982Z,11.30
2019-03-19T19:18:59.655Z,11.40
2019-03-19T19:23:05.452Z,11.40
2019-03-19T19:27:14.744Z,11.20
2019-03-19T19:31:20.123Z,11.00
2019-03-19T19:35:25.971Z,11.00
2019-03-19T19:39:31.676Z,10.90
2019-03-19T19:43:37.407Z,11.10
2019-03-19T19:47:43.166Z,11.20
2019-03-19T19:51:48.885Z,11.10
2019-03-19T19:55:54.587Z,11.00
2019-03-19T20:00:01.912Z,11.20
2019-03-19T20:04:08.374Z,11.30
2019-03-19T20:08:14.032Z,11.40
2019-03-19T20:12:19.727Z,11.40
2019-03-19T20:16:25.491Z,11.40
2019-03-19T20:36:18.575Z,10.90
2019-03-19T20:41:18.559Z,11.00
2019-03-19T20:50:21.448Z,10.60
2019-03-19T20:59:20.172Z,10.50
2019-03-19T21:04:17.108Z,10.70
2019-03-19T21:08:22.803Z,10.90
2019-03-19T21:12:31.364Z,10.70
2019-03-19T21:17:18.106Z,10.80
2019-03-19T21:21:23.828Z,10.40
2019-03-19T21:26:17.907Z,10.20
2019-03-19T21:30:24.794Z,10.30
2019-03-19T21:35:22.128Z,10.40
2019-03-19T21:39:27.844Z,10.40
2019-03-19T21:44:18.771Z,10.20
2019-03-19T21:48:24.608Z,10.30
2019-03-19T21:53:18.445Z,10.40
2019-03-19T21:57:24.230Z,10.50
2019-03-19T22:07:19.333Z,10.30
2019-03-19T22:11:25.091Z,10.20
2019-03-19T22:15:30.867Z,10.00
2019-03-19T22:20:18.748Z,10.00
2019-03-19T22:24:24.437Z,10.20
2019-03-19T22:29:18.592Z,10.30
2019-03-19T22:33:24.355Z,10.20
2019-03-19T22:38:15.632Z,10.30
2019-03-19T22:42:22.966Z,10.30
2019-03-19T22:46:28.665Z,10.10
2019-03-19T22:50:34.384Z,10.20
2019-03-19T22:54:40.057Z,10.20
2019-03-19T22:58:45.754Z,10.30
2019-03-19T23:02:51.943Z,10.10
2019-03-19T23:06:57.801Z,9.90
2019-03-19T23:11:03.580Z,9.80
2019-03-19T23:15:13.468Z,9.80
2019-03-19T23:19:19.153Z,9.90
2019-03-19T23:23:24.961Z,9.90
2019-03-19T23:27:30.652Z,9.80
2019-03-19T23:31:36.325Z,9.70
2019-03-19T23:35:41.985Z,9.80
2019-03-19T23:39:47.658Z,9.80
2019-03-19T23:43:53.442Z,9.60
2019-03-19T23:47:59.138Z,9.40
2019-03-19T23:52:04.816Z,9.40
2019-03-19T23:56:10.538Z,9.50
